Flight Track Log - Related Links

Times and Time Zones

All times are in EST time to prevent confusion due to time zone crossing. See the AMF1324 flight status page for this flight to view local times or setup timezone preferences in your user account.

Time Position Orientation Groundspeed Altitude Reporting Facility
EST Latitude Longitude Course Direction KTS MPH feet Rate Location/Type
Thu 08:20:44 AM 42.2528 -76.0714 297° West 165 190 6,500  Level New York Center
Thu 08:21:45 AM 42.2775 -76.1236 303° West 170 196 8,400 1,672 Climbing New York Center
Thu 08:22:46 AM 42.3067 -76.1681 312° West 170 196 9,900 1,488 Climbing New York Center
Thu 08:23:46 AM 42.3228 -76.2256 291° West 158 182 11,400 1,050 Climbing New York Center
Thu 08:24:46 AM 42.3322 -76.2881 282° West 152 175 12,000 303 Climbing New York Center
Thu 08:25:00 AM 42.2965 -76.2946 297° West  Level Estimated
Thu 08:25:45 AM 42.3414 -76.3589 280° West 174 200 12,000  Level New York Center
Thu 08:26:46 AM 42.3528 -76.4300 282° West 190 219 12,100 50 Climbing New York Center
Thu 08:27:45 AM 42.3658 -76.5042 283° West 196 226 12,100  Level New York Center
Thu 08:28:46 AM 42.3833 -76.5731 289° West 201 231 12,100  Level New York Center
Thu 08:31:03 AM 42.4311 -76.7206 294° West 198 228 12,100 -30 Level Cleveland Center
Thu 08:32:05 AM 42.4558 -76.8050 292° West 201 231 12,000 -48 Descending Cleveland Center
Thu 08:33:08 AM 42.4781 -76.8747 293° West 201 231 12,000  Level Cleveland Center
Thu 08:34:10 AM 42.5025 -76.9475 295° West 210 242 12,000  Level Cleveland Center
Thu 08:35:12 AM 42.5192 -77.0217 287° West 208 239 12,000  Level Cleveland Center
Thu 08:36:14 AM 42.5428 -77.0969 293° West 214 246 12,000  Level Cleveland Center
Thu 08:37:16 AM 42.5669 -77.1717 294° West 216 249 12,000  Level Cleveland Center
Thu 08:38:18 AM 42.5956 -77.2611 294° West 216 249 12,000  Level Cleveland Center
Thu 08:39:20 AM 42.6164 -77.3361 291° West 213 245 12,000  Level Cleveland Center
Thu 08:40:22 AM 42.6378 -77.4117 291° West 215 247 12,000  Level Cleveland Center
Thu 08:41:24 AM 42.6619 -77.4986 291° West 214 246 12,000  Level Cleveland Center
Thu 08:42:26 AM 42.6744 -77.5772 282° West 211 243 12,000  Level Cleveland Center
Thu 08:43:28 AM 42.6950 -77.6522 290° West 214 246 12,000 -48 Level Cleveland Center
Thu 08:44:30 AM 42.7208 -77.7258 296° West 218 251 11,900 -154 Descending Cleveland Center
Thu 08:44:46 AM 42.7294 -77.7578 290° West 218 251 11,800 -828 Descending Cleveland Center
Thu 08:45:28 AM 42.7381 -77.8147 282° West 226 260 11,100 -783 Descending Cleveland Center
Thu 08:45:32 AM 42.7358 -77.8069 111° Southeast 225 259 11,200 -1,091 Climbing Cleveland Center
Thu 08:46:23 AM 42.7517 -77.8961 284° West 238 274 10,100 -1,258 Descending Cleveland Center
Thu 08:46:34 AM 42.7547 -77.9119 285° West 237 273 9,900 -1,400 Descending Cleveland Center
Thu 08:47:23 AM 42.7717 -77.9794 289° West 234 269 8,700 -1,548 Descending Cleveland Center
Thu 08:47:36 AM 42.7781 -77.9994 294° West 236 272 8,300 -2,164 Descending Cleveland Center
Thu 08:48:24 AM 42.7958 -78.0608 292° West 236 272 6,500 -2,226 Descending Cleveland Center
Thu 08:48:38 AM 42.8011 -78.0806 290° West 238 274 6,000 -1,714 Descending Cleveland Center
Thu 08:49:41 AM 42.8208 -78.1681 287° West 232 267 4,300 -960 Descending Cleveland Center
Thu 08:50:43 AM 42.8303 -78.2469 279° West 205 236 4,000 -145 Descending Cleveland Center
Thu 08:51:45 AM 42.8661 -78.2944 316° Northwest 167 192 4,000  Level Cleveland Center
Thu 08:52:47 AM 42.8975 -78.3386 314° West 159 183 4,000  Level Cleveland Center
Thu 08:53:49 AM 42.9272 -78.3858 311° West 159 183 4,000  Level Cleveland Center
Thu 08:54:52 AM 42.9567 -78.4375 308° West 164 189 4,000 -145 Level Cleveland Center
Thu 08:55:53 AM 42.9811 -78.4828 306° West 164 189 3,700 -683 Descending Cleveland Center
Thu 08:56:55 AM 43.0153 -78.5411 309° West 177 204 2,600 -677 Descending Cleveland Center
Thu 08:57:57 AM 43.0522 -78.5858 319° Northwest 178 205 2,300 -145 Descending Cleveland Center
Thu 08:58:59 AM 42.9992 -78.6494 221° Southwest 193 222 2,300 -48 Level Cleveland Center
Thu 09:00:01 AM 42.9714 -78.6872 225° Southwest 187 215 2,200 -97 Descending Cleveland Center
Thu 09:02:00 AM 42.9333 -78.7167 247° West  Level FlightAware Approximate

Login

Don't have an account? Register now (free) for customized features, flight alerts, and more!